Time;durP1;ratioP1;P1;durP2;ratioP2;P2;SDS_P1;SDS_P2;PMS_P1;PMS_P2;Temp;Humidity;BMP_temperature;BMP_pressure;BME280_temperature;BME280_humidity;BME280_pressure;Samples;Min_cycle;Max_cycle;Signal;HPM_P1;HPM_P2
2021/09/04 00:01:15;;;;;;;6.38;4.13;;;;;;;18.35;61.34;100082.63;4938847;29;20087;-77
2021/09/04 00:03:42;;;;;;;5.45;4.60;;;;;;;18.27;61.54;100085.94;4939464;29;20402;-76
2021/09/04 00:06:09;;;;;;;5.22;4.40;;;;;;;18.28;61.72;100079.69;4938609;29;20119;-76
2021/09/04 00:08:39;;;;;;;9.73;4.75;;;;;;;18.36;61.34;100083.47;4901416;29;20055;-75
2021/09/04 00:11:08;;;;;;;7.47;5.32;;;;;;;18.32;61.64;100086.38;4901028;29;20119;-75
2021/09/04 00:13:40;;;;;;;5.07;4.28;;;;;;;18.21;62.11;100086.44;4901363;29;20563;-74
2021/09/04 00:16:10;;;;;;;8.60;4.20;;;;;;;18.17;62.26;100085.03;4900807;29;20074;-74
2021/09/04 00:18:37;;;;;;;5.78;4.22;;;;;;;18.12;62.38;100074.03;4901077;29;20053;-74
2021/09/04 00:21:03;;;;;;;7.22;4.30;;;;;;;18.17;62.59;100084.22;4900663;29;20041;-75
2021/09/04 00:23:30;;;;;;;6.65;4.70;;;;;;;18.06;62.82;100078.03;4901076;29;20392;-76
2021/09/04 00:25:57;;;;;;;5.65;4.05;;;;;;;18.08;62.50;100077.88;4901092;29;20108;-74
2021/09/04 00:28:23;;;;;;;9.70;4.20;;;;;;;17.97;63.19;100075.31;4900668;29;20048;-74
2021/09/04 00:30:50;;;;;;;4.82;4.30;;;;;;;17.95;63.39;100074.59;4900770;29;20492;-74
2021/09/04 00:33:17;;;;;;;6.90;4.45;;;;;;;18.03;62.69;100069.53;4900331;29;20051;-74
2021/09/04 00:35:44;;;;;;;5.28;3.97;;;;;;;18.09;62.59;100071.66;4900454;29;20105;-75
2021/09/04 00:38:10;;;;;;;7.03;3.88;;;;;;;18.05;62.52;100065.78;4900434;29;20049;-74
2021/09/04 00:40:37;;;;;;;5.35;4.18;;;;;;;18.03;62.65;100056.34;4900731;29;20049;-74
2021/09/04 00:43:04;;;;;;;6.00;3.80;;;;;;;17.98;62.92;100064.63;4900060;29;20044;-74
2021/09/04 00:45:31;;;;;;;5.85;4.25;;;;;;;18.13;62.13;100067.78;4895906;29;20053;-77
2021/09/04 00:48:00;;;;;;;4.90;4.32;;;;;;;18.06;62.23;100056.94;4894116;29;20579;-75
2021/09/04 00:50:29;;;;;;;13.02;4.55;;;;;;;17.88;62.98;100052.34;4899519;29;20060;-75
2021/09/04 00:52:56;;;;;;;5.90;4.03;;;;;;;17.90;62.79;100058.34;4890166;29;20037;-76
2021/09/04 00:55:24;;;;;;;8.48;4.03;;;;;;;17.89;63.10;100054.00;4899655;29;20056;-75
2021/09/04 00:57:52;;;;;;;5.78;4.97;;;;;;;17.97;62.37;100062.13;4900060;29;20049;-74
2021/09/04 01:00:19;;;;;;;5.13;4.30;;;;;;;17.96;62.41;100050.75;4898987;29;20051;-76
2021/09/04 01:02:46;;;;;;;6.88;4.93;;;;;;;17.91;62.78;100052.09;4900249;29;20052;-76
2021/09/04 01:05:14;;;;;;;5.35;4.07;;;;;;;18.09;62.05;100054.97;4900031;29;20064;-76
2021/09/04 01:07:43;;;;;;;5.10;3.60;;;;;;;18.17;61.43;100052.53;4923992;29;20522;-76
2021/09/04 01:10:13;;;;;;;5.32;4.45;;;;;;;18.20;61.08;100047.81;4937806;29;20131;-75
2021/09/04 01:12:40;;;;;;;6.88;4.35;;;;;;;18.23;61.00;100047.56;4938247;29;20467;-75
2021/09/04 01:15:09;;;;;;;8.20;4.70;;;;;;;18.03;62.00;100041.34;4937439;29;20048;-74
2021/09/04 01:17:37;;;;;;;9.10;3.78;;;;;;;17.94;62.47;100041.28;4937777;29;20043;-75
2021/09/04 01:20:05;;;;;;;7.03;3.92;;;;;;;18.03;62.18;100041.34;4937915;29;20110;-75
2021/09/04 01:22:33;;;;;;;10.05;4.38;;;;;;;18.31;60.79;100031.91;4937524;29;20050;-75
2021/09/04 01:25:06;;;;;;;9.68;4.63;;;;;;;18.37;60.75;100037.63;4937851;29;20053;-75
2021/09/04 01:27:37;;;;;;;7.03;4.60;;;;;;;18.26;61.17;100038.56;4937593;29;20054;-74
2021/09/04 01:30:06;;;;;;;8.65;4.88;;;;;;;18.06;61.84;100048.19;4937822;29;20091;-75
2021/09/04 01:32:33;;;;;;;4.88;3.97;;;;;;;17.97;62.29;100041.03;4936866;29;20040;-76
2021/09/04 01:35:08;;;;;;;5.45;4.28;;;;;;;17.86;62.83;100043.72;4952067;29;20048;-76
2021/09/04 01:37:36;;;;;;;7.63;3.80;;;;;;;17.80;63.18;100040.66;4936969;29;20067;-76
2021/09/04 01:40:11;;;;;;;8.13;4.30;;;;;;;17.61;64.04;100036.97;4937224;29;20086;-76
2021/09/04 01:42:39;;;;;;;7.40;4.35;;;;;;;17.58;64.32;100040.72;4920750;29;20047;-76
2021/09/04 01:45:07;;;;;;;5.25;4.03;;;;;;;17.59;64.20;100039.75;4937329;29;20067;-75
2021/09/04 01:47:34;;;;;;;7.93;5.05;;;;;;;17.59;64.25;100045.03;4936626;29;20043;-76
2021/09/04 01:50:02;;;;;;;4.82;4.22;;;;;;;17.64;63.93;100045.50;4937200;29;20380;-76
2021/09/04 01:52:28;;;;;;;4.88;4.40;;;;;;;17.65;63.93;100039.25;4936999;29;20098;-76
2021/09/04 01:54:55;;;;;;;5.50;4.00;;;;;;;17.56;64.19;100026.81;4936987;29;20044;-76
2021/09/04 01:57:22;;;;;;;7.10;4.07;;;;;;;17.59;64.13;100029.22;4937099;29;20047;-76
2021/09/04 01:59:49;;;;;;;6.85;4.25;;;;;;;17.36;65.02;100038.16;4936856;29;20043;-76
2021/09/04 02:02:15;;;;;;;5.72;3.88;;;;;;;17.33;65.20;100027.88;4937027;29;20048;-75
2021/09/04 02:04:42;;;;;;;12.75;4.30;;;;;;;17.20;65.89;100034.13;4936590;29;20054;-75
2021/09/04 02:07:09;;;;;;;13.82;7.45;;;;;;;17.22;65.76;100021.69;4936716;29;20055;-76
2021/09/04 02:09:36;;;;;;;5.63;5.03;;;;;;;17.28;65.32;100025.63;4936829;29;20075;-74
2021/09/04 02:12:03;;;;;;;8.30;3.53;;;;;;;17.28;65.30;100018.53;4936855;29;20099;-76
2021/09/04 02:14:29;;;;;;;7.00;4.38;;;;;;;17.29;65.11;100017.56;4936353;29;20502;-75
2021/09/04 02:16:56;;;;;;;6.95;4.88;;;;;;;17.16;65.56;100019.56;4936117;29;20107;-75
2021/09/04 02:19:23;;;;;;;7.68;4.40;;;;;;;16.83;66.80;100015.19;4936548;29;20086;-75
2021/09/04 02:21:51;;;;;;;7.70;4.55;;;;;;;16.84;66.91;100016.88;4935768;29;20135;-75
2021/09/04 02:24:20;;;;;;;6.07;4.32;;;;;;;16.64;67.68;100012.31;4936652;29;20055;-76
2021/09/04 02:26:47;;;;;;;5.07;4.28;;;;;;;16.73;67.27;100011.63;4936470;29;20095;-75
2021/09/04 02:29:14;;;;;;;6.72;4.40;;;;;;;16.83;67.17;100012.56;4936539;29;20044;-75
2021/09/04 02:31:42;;;;;;;6.90;4.35;;;;;;;16.80;67.07;100011.97;4936252;29;20122;-75
2021/09/04 02:34:11;;;;;;;16.35;4.93;;;;;;;16.84;66.88;100018.66;4936279;29;20044;-76
2021/09/04 02:36:40;;;;;;;7.45;4.15;;;;;;;16.73;67.39;100017.72;4936080;29;20405;-75
2021/09/04 02:39:07;;;;;;;5.20;4.28;;;;;;;16.53;68.04;100018.41;4936323;29;20043;-76
2021/09/04 02:41:35;;;;;;;6.15;4.65;;;;;;;16.72;67.40;100016.06;4936119;29;20135;-76
2021/09/04 02:44:02;;;;;;;5.05;3.97;;;;;;;16.56;68.09;100012.91;4936213;29;20356;-75
2021/09/04 02:46:31;;;;;;;6.13;4.22;;;;;;;16.48;68.39;100020.56;4936328;29;20503;-75
2021/09/04 02:48:59;;;;;;;5.30;4.40;;;;;;;16.48;68.52;100018.78;4935653;29;20047;-76
2021/09/04 02:51:26;;;;;;;5.30;4.50;;;;;;;16.50;68.46;100016.00;4936275;29;20055;-76
2021/09/04 02:53:53;;;;;;;5.97;4.45;;;;;;;16.30;69.57;100019.34;4935614;29;20043;-76
2021/09/04 02:56:20;;;;;;;8.85;4.70;;;;;;;16.30;69.64;100025.47;4936046;29;20106;-75
2021/09/04 02:58:46;;;;;;;9.85;4.55;;;;;;;16.44;68.73;100022.59;4935589;29;20075;-75
2021/09/04 03:01:13;;;;;;;7.63;4.85;;;;;;;16.53;68.23;100025.47;4936014;29;20071;-76
2021/09/04 03:03:40;;;;;;;7.43;4.55;;;;;;;16.52;68.60;100018.53;4935461;29;20040;-75
2021/09/04 03:06:07;;;;;;;9.98;4.60;;;;;;;16.48;68.86;100024.03;4935925;29;20122;-75
2021/09/04 03:08:35;;;;;;;8.25;5.45;;;;;;;16.44;69.11;100012.06;4935390;29;20058;-75
2021/09/04 03:11:05;;;;;;;9.15;4.82;;;;;;;16.29;69.46;100022.94;4935740;29;20051;-76
2021/09/04 03:13:34;;;;;;;4.82;4.32;;;;;;;16.30;69.35;100016.72;4935602;29;20048;-75
2021/09/04 03:16:01;;;;;;;7.82;4.53;;;;;;;16.14;70.12;100019.69;4935261;29;20052;-74
2021/09/04 03:18:28;;;;;;;7.20;4.65;;;;;;;16.21;69.70;100013.03;4935578;29;20048;-75
2021/09/04 03:20:56;;;;;;;8.23;5.40;;;;;;;16.26;69.90;100013.50;4935459;29;20115;-75
2021/09/04 03:23:23;;;;;;;5.95;4.18;;;;;;;16.30;69.54;100020.22;4934958;29;20079;-75
2021/09/04 03:25:51;;;;;;;5.25;4.75;;;;;;;16.23;69.68;100017.19;4935158;29;20047;-75
2021/09/04 03:28:18;;;;;;;5.13;4.45;;;;;;;16.16;70.17;100018.63;4935520;29;20055;-75
2021/09/04 03:30:47;;;;;;;10.20;5.07;;;;;;;16.22;69.87;100012.91;4935375;29;20048;-74
2021/09/04 03:33:14;;;;;;;5.63;4.70;;;;;;;16.24;69.65;100013.63;4935674;29;20394;-75
2021/09/04 03:35:40;;;;;;;10.88;5.45;;;;;;;16.26;69.68;100017.94;4935393;29;20040;-75
2021/09/04 03:38:09;;;;;;;9.23;6.05;;;;;;;16.34;69.23;100016.38;4935723;29;20040;-75
2021/09/04 03:40:37;;;;;;;12.82;5.97;;;;;;;16.27;69.64;100019.59;4935427;29;20043;-74
2021/09/04 03:43:05;;;;;;;8.52;5.63;;;;;;;16.24;69.81;100013.63;4935165;29;20044;-77
2021/09/04 03:45:34;;;;;;;6.82;4.93;;;;;;;16.08;70.19;100015.75;4935278;29;20048;-74
2021/09/04 03:48:02;;;;;;;7.80;4.32;;;;;;;15.91;70.73;100010.94;4935370;29;20048;-74
2021/09/04 03:50:29;;;;;;;7.22;4.55;;;;;;;15.86;71.08;100000.78;4935638;29;20044;-74
2021/09/04 03:52:56;;;;;;;12.95;5.35;;;;;;;15.79;71.62;99999.56;4940424;29;20059;-75
2021/09/04 03:55:24;;;;;;;8.82;5.75;;;;;;;15.81;71.61;100004.69;4955772;29;20107;-75
2021/09/04 03:57:50;;;;;;;8.10;5.78;;;;;;;15.84;71.44;100009.75;4955236;29;20054;-75
2021/09/04 04:00:18;;;;;;;8.73;5.75;;;;;;;15.66;72.29;100015.44;4952135;29;20047;-74
2021/09/04 04:02:46;;;;;;;9.88;6.05;;;;;;;15.68;72.02;100021.41;4917910;29;20051;-76
2021/09/04 04:05:14;;;;;;;5.80;5.20;;;;;;;15.62;72.28;100008.69;4935250;29;20078;-77
2021/09/04 04:07:42;;;;;;;5.80;4.97;;;;;;;15.59;72.38;100008.06;4934973;29;20060;-80
2021/09/04 04:10:10;;;;;;;8.93;5.78;;;;;;;15.62;72.45;100010.47;4934855;29;20111;-81
2021/09/04 04:12:36;;;;;;;5.38;4.63;;;;;;;15.68;72.12;100004.81;4935513;29;20054;-80
2021/09/04 04:15:05;;;;;;;8.18;5.13;;;;;;;15.55;72.26;100012.72;4934844;29;20491;-80
2021/09/04 04:17:33;;;;;;;7.78;5.47;;;;;;;15.46;72.75;100008.16;4935137;29;20083;-81
2021/09/04 04:20:01;;;;;;;6.85;4.90;;;;;;;15.57;72.20;100004.75;4934796;29;20582;-80
2021/09/04 04:22:28;;;;;;;7.50;5.32;;;;;;;15.53;72.18;100009.38;4935506;29;20048;-78
2021/09/04 04:24:55;;;;;;;9.40;4.65;;;;;;;15.27;73.38;100002.56;4935004;29;20123;-80
2021/09/04 04:27:23;;;;;;;8.75;4.43;;;;;;;15.22;73.54;100009.94;4935338;29;20102;-80
2021/09/04 04:29:49;;;;;;;6.68;4.45;;;;;;;15.34;73.23;100006.41;4934943;29;20044;-80
2021/09/04 04:32:16;;;;;;;12.15;4.82;;;;;;;15.37;73.38;100011.47;4935164;29;20044;-79
2021/09/04 04:34:43;;;;;;;5.63;5.03;;;;;;;15.44;73.01;100013.50;4935200;29;20103;-80
2021/09/04 04:37:11;;;;;;;5.53;4.78;;;;;;;15.34;73.51;100014.28;4936181;29;20507;-80
2021/09/04 04:39:39;;;;;;;6.45;4.60;;;;;;;15.34;73.32;100014.28;4931185;29;20059;-82
2021/09/04 04:42:08;;;;;;;5.22;4.50;;;;;;;15.33;73.16;100017.88;4937994;29;20044;-81
2021/09/04 04:44:34;;;;;;;5.22;4.32;;;;;;;15.27;73.38;100024.41;4938657;29;20102;-83
2021/09/04 04:47:03;;;;;;;5.50;4.75;;;;;;;15.20;73.92;100029.28;4938018;29;20056;-80
2021/09/04 04:49:30;;;;;;;7.15;4.85;;;;;;;15.33;73.42;100036.25;4938406;29;20075;-82
2021/09/04 04:51:57;;;;;;;6.55;4.55;;;;;;;15.36;73.24;100028.16;4942382;29;20047;-80
2021/09/04 04:54:25;;;;;;;5.70;4.82;;;;;;;15.46;73.09;100034.44;4956538;28;20039;-86
2021/09/04 04:56:53;;;;;;;6.32;4.15;;;;;;;15.59;72.21;100035.19;4942747;29;20071;-84
2021/09/04 04:59:20;;;;;;;9.02;4.55;;;;;;;15.87;70.94;100033.16;4939116;29;20075;-83
2021/09/04 05:01:48;;;;;;;8.38;4.95;;;;;;;15.78;71.50;100036.50;4938084;29;20122;-83
2021/09/04 05:04:18;;;;;;;9.45;4.90;;;;;;;15.90;71.26;100036.38;4938467;29;20047;-81
2021/09/04 05:06:46;;;;;;;7.60;5.00;;;;;;;15.85;71.37;100040.31;4937828;29;20048;-82
2021/09/04 05:09:14;;;;;;;13.10;6.97;;;;;;;15.87;71.45;100043.66;4936393;29;20080;-83
2021/09/04 05:11:40;;;;;;;5.88;4.93;;;;;;;15.76;71.53;100046.25;4936890;29;20483;-83
2021/09/04 05:14:08;;;;;;;8.18;5.40;;;;;;;15.95;70.99;100036.88;4935954;29;20039;-80
2021/09/04 05:16:35;;;;;;;8.20;5.28;;;;;;;16.00;70.52;100039.16;4935328;29;20090;-80
2021/09/04 05:19:03;;;;;;;8.70;5.40;;;;;;;15.89;71.47;100045.25;4935202;29;20402;-81
2021/09/04 05:21:30;;;;;;;8.48;6.93;;;;;;;16.15;70.50;100038.00;4936011;29;20040;-80
2021/09/04 05:23:57;;;;;;;6.75;4.90;;;;;;;16.46;68.98;100041.75;4937799;29;20123;-79
2021/09/04 05:26:24;;;;;;;9.20;5.97;;;;;;;16.72;68.15;100030.97;4937954;29;20372;-81
2021/09/04 05:28:51;;;;;;;11.82;5.53;;;;;;;17.08;66.93;100039.56;4937897;29;20090;-81
2021/09/04 05:31:17;;;;;;;9.57;5.50;;;;;;;17.57;65.24;100038.19;4938058;29;20488;-83
2021/09/04 05:33:44;;;;;;;10.85;5.22;;;;;;;17.83;63.99;100044.81;4937941;29;20421;-86
2021/09/04 05:36:11;;;;;;;9.57;4.80;;;;;;;17.96;63.31;100044.63;4937889;29;20063;-85
2021/09/04 05:38:38;;;;;;;7.47;4.88;;;;;;;18.05;63.66;100043.84;4938324;29;20044;-87
2021/09/04 05:41:06;;;;;;;5.38;4.65;;;;;;;18.21;62.83;100044.22;4937222;29;20043;-83
2021/09/04 05:43:33;;;;;;;11.93;4.78;;;;;;;18.28;62.60;100034.84;4937546;29;20091;-86
2021/09/04 05:45:59;;;;;;;8.35;4.43;;;;;;;18.56;61.83;100038.56;4936757;29;20044;-86
2021/09/04 05:48:26;;;;;;;8.15;5.18;;;;;;;18.72;61.48;100045.19;4938027;29;20044;-91
2021/09/04 05:50:53;;;;;;;10.18;5.10;;;;;;;18.92;60.72;100036.38;4937983;29;20091;-92
2021/09/04 05:53:20;;;;;;;6.93;5.05;;;;;;;19.06;59.98;100035.13;4937115;29;20107;-85
2021/09/04 05:55:46;;;;;;;7.90;5.20;;;;;;;19.27;59.69;100033.22;4937402;29;20095;-86
2021/09/04 05:58:14;;;;;;;15.20;5.20;;;;;;;19.43;58.98;100032.66;4936865;29;20048;-85
2021/09/04 06:00:41;;;;;;;12.77;6.22;;;;;;;19.49;58.87;100026.81;4921187;29;20087;-85
2021/09/04 06:03:08;;;;;;;13.20;5.70;;;;;;;19.18;60.45;100039.34;4938649;29;20483;-87
2021/09/04 06:05:36;;;;;;;14.68;5.63;;;;;;;19.25;60.68;100032.53;4953327;29;20051;-80
2021/09/04 06:08:03;;;;;;;9.75;5.82;;;;;;;19.32;60.29;100033.63;4936132;29;20047;-81
2021/09/04 06:10:29;;;;;;;9.30;5.72;;;;;;;19.47;59.42;100043.81;4935837;29;20080;-84
2021/09/04 06:12:56;;;;;;;8.20;5.20;;;;;;;19.36;61.04;100044.78;4934246;29;20043;-83
2021/09/04 06:15:23;;;;;;;9.70;4.97;;;;;;;19.65;60.63;100039.50;4942898;29;20052;-83
2021/09/04 06:17:49;;;;;;;10.80;5.10;;;;;;;19.79;60.06;100038.25;4936546;29;20198;-84
2021/09/04 06:20:17;;;;;;;11.10;5.57;;;;;;;19.59;59.72;100032.16;4938705;29;20044;-83
2021/09/04 06:22:44;;;;;;;7.38;5.47;;;;;;;19.70;59.06;100036.44;4936507;29;20048;-83
2021/09/04 06:25:11;;;;;;;10.23;5.63;;;;;;;19.65;58.20;100042.16;4933984;29;20082;-83
2021/09/04 06:27:38;;;;;;;10.07;6.93;;;;;;;19.68;57.41;100041.88;4936513;29;20036;-83
2021/09/04 06:30:06;;;;;;;7.60;5.40;;;;;;;19.86;56.56;100044.66;4936675;29;20451;-83
2021/09/04 06:32:33;;;;;;;12.43;6.50;;;;;;;19.90;56.38;100053.97;4936683;29;20039;-83
2021/09/04 06:35:00;;;;;;;10.27;5.82;;;;;;;20.43;55.03;100048.16;4936447;29;20054;-82
2021/09/04 06:37:27;;;;;;;11.73;5.38;;;;;;;20.17;56.02;100045.28;4936608;29;20127;-82
2021/09/04 06:39:54;;;;;;;12.80;5.82;;;;;;;20.15;56.19;100044.63;4936404;29;20035;-82
2021/09/04 06:42:24;;;;;;;9.52;5.90;;;;;;;20.17;56.06;100045.28;4936135;29;20139;-83
2021/09/04 06:44:51;;;;;;;6.70;5.15;;;;;;;20.32;55.73;100046.50;4936302;29;20051;-83
2021/09/04 06:47:18;;;;;;;11.77;5.78;;;;;;;20.54;55.15;100041.88;4936137;29;20043;-83
2021/09/04 06:49:44;;;;;;;10.57;6.28;;;;;;;21.19;53.29;100039.97;4936569;29;20040;-83
2021/09/04 06:52:11;;;;;;;7.55;5.85;;;;;;;21.43;52.05;100044.72;4936104;29;20455;-82
2021/09/04 06:54:38;;;;;;;7.80;6.53;;;;;;;21.05;53.02;100044.00;4935840;29;20039;-83
2021/09/04 06:57:05;;;;;;;8.55;6.57;;;;;;;21.86;51.24;100049.25;4935888;29;20395;-81
2021/09/04 06:59:31;;;;;;;10.80;6.80;;;;;;;21.25;52.36;100049.97;4935279;29;20100;-82
2021/09/04 07:01:59;;;;;;;13.88;6.65;;;;;;;21.12;52.46;100052.16;4935639;29;20051;-80
2021/09/04 07:04:26;;;;;;;11.20;6.30;;;;;;;21.30;51.87;100055.69;4934497;29;20044;-77
2021/09/04 07:06:53;;;;;;;13.00;6.18;;;;;;;21.69;51.12;100063.38;4934228;29;20051;-80
2021/09/04 07:09:20;;;;;;;7.38;5.88;;;;;;;21.81;51.02;100061.31;4934848;29;20103;-81
2021/09/04 07:11:46;;;;;;;8.20;6.68;;;;;;;22.13;50.64;100068.72;4934874;29;20052;-81
2021/09/04 07:14:13;;;;;;;11.68;8.68;;;;;;;21.42;51.67;100078.38;4917542;29;20542;-82
2021/09/04 07:16:40;;;;;;;6.50;5.63;;;;;;;21.75;50.87;100068.06;4935139;29;20456;-84
2021/09/04 07:19:07;;;;;;;6.53;5.93;;;;;;;22.02;49.90;100069.78;4934550;29;20095;-82
2021/09/04 07:21:33;;;;;;;13.10;6.93;;;;;;;22.44;48.97;100077.06;4935078;29;20043;-82
2021/09/04 07:24:00;;;;;;;9.30;6.05;;;;;;;22.75;48.17;100075.56;4930372;29;20047;-82
2021/09/04 07:26:29;;;;;;;23.25;6.97;;;;;;;22.20;49.49;100075.91;4936111;29;20063;-82
2021/09/04 07:28:56;;;;;;;23.35;7.85;;;;;;;22.27;49.49;100078.78;4931069;29;20044;-82
2021/09/04 07:31:22;;;;;;;9.25;6.22;;;;;;;21.89;50.51;100080.81;4931223;29;20092;-80
2021/09/04 07:33:49;;;;;;;10.23;6.78;;;;;;;21.90;50.80;100087.75;4947389;29;20040;-80
2021/09/04 07:36:16;;;;;;;7.10;6.40;;;;;;;22.54;48.64;100080.44;4931203;29;20086;-80
2021/09/04 07:38:43;;;;;;;10.15;5.70;;;;;;;22.96;48.37;100084.97;4928692;29;20111;-81
2021/09/04 07:41:10;;;;;;;11.20;6.28;;;;;;;22.67;48.86;100088.78;4929842;29;20036;-81
2021/09/04 07:43:36;;;;;;;13.07;5.95;;;;;;;22.54;48.86;100083.09;4942175;29;20098;-81
2021/09/04 07:46:03;;;;;;;9.70;6.78;;;;;;;23.29;46.83;100080.59;4933544;29;20043;-81
2021/09/04 07:48:30;;;;;;;12.98;6.50;;;;;;;23.48;46.41;100079.44;4938650;29;20046;-82
2021/09/04 07:50:57;;;;;;;10.90;6.03;;;;;;;24.24;45.00;100086.34;4934936;29;20114;-81
2021/09/04 07:53:24;;;;;;;15.38;6.60;;;;;;;23.44;45.80;100083.47;4930044;29;20404;-82
2021/09/04 07:55:50;;;;;;;8.07;7.18;;;;;;;23.51;45.78;100084.47;4932579;29;20055;-84
2021/09/04 07:58:17;;;;;;;9.73;6.70;;;;;;;23.48;45.03;100085.59;4925883;29;20090;-83
2021/09/04 08:00:44;;;;;;;8.27;5.80;;;;;;;24.33;43.04;100087.97;4934908;29;20517;-84
2021/09/04 08:03:11;;;;;;;10.10;7.03;;;;;;;24.61;42.49;100087.59;4924578;29;20036;-83
2021/09/04 08:05:38;;;;;;;7.60;6.28;;;;;;;23.99;44.15;100099.66;4937480;29;20117;-83
2021/09/04 08:08:05;;;;;;;8.80;5.38;;;;;;;24.36;43.59;100089.50;4935716;29;20051;-82
2021/09/04 08:10:32;;;;;;;10.40;5.93;;;;;;;24.51;43.12;100087.81;4941708;29;20550;-82
2021/09/04 08:12:59;;;;;;;7.78;6.32;;;;;;;24.24;42.60;100091.66;4944861;29;20046;-83
2021/09/04 08:15:26;;;;;;;9.73;5.75;;;;;;;25.16;40.54;100098.25;4947042;29;20066;-83
2021/09/04 08:17:53;;;;;;;7.72;6.10;;;;;;;25.89;39.08;100094.28;4941632;29;20047;-82
2021/09/04 08:20:20;;;;;;;8.35;5.78;;;;;;;26.79;37.61;100098.75;4936155;29;20040;-82
2021/09/04 08:22:47;;;;;;;13.48;5.70;;;;;;;26.40;37.75;100097.16;4943468;29;20134;-83
2021/09/04 08:25:13;;;;;;;8.13;4.78;;;;;;;25.27;37.52;100095.19;4940010;29;20113;-83
2021/09/04 08:27:40;;;;;;;11.75;5.65;;;;;;;24.70;39.87;100105.22;4943828;29;20549;-80
2021/09/04 08:30:09;;;;;;;8.75;5.13;;;;;;;25.25;39.36;100093.72;4935375;29;20044;-83
2021/09/04 08:32:35;;;;;;;5.45;4.72;;;;;;;25.68;38.64;100096.78;4941230;29;20513;-82
2021/09/04 08:35:03;;;;;;;8.05;4.28;;;;;;;26.32;34.92;100100.75;4926723;29;20121;-82
2021/09/04 08:37:29;;;;;;;9.45;3.85;;;;;;;26.92;32.17;100106.97;4947620;29;20134;-83
2021/09/04 08:39:56;;;;;;;5.53;3.38;;;;;;;26.42;32.54;100111.22;4944597;29;20376;-84
2021/09/04 08:42:23;;;;;;;4.07;3.67;;;;;;;26.98;30.62;100122.25;4940591;29;20043;-83
2021/09/04 08:44:50;;;;;;;4.10;3.40;;;;;;;26.96;31.15;100113.59;4944372;29;20043;-83
2021/09/04 08:47:19;;;;;;;4.78;3.63;;;;;;;26.80;31.82;100117.31;4943861;29;20047;-82
2021/09/04 08:49:47;;;;;;;5.25;4.35;;;;;;;26.02;32.27;100107.84;4940927;29;20103;-81
2021/09/04 08:52:18;;;;;;;6.28;3.38;;;;;;;25.12;32.96;100109.44;4916035;29;20040;-81
2021/09/04 08:54:47;;;;;;;7.03;3.65;;;;;;;25.50;33.94;100113.88;4936697;29;20040;-83
2021/09/04 08:57:16;;;;;;;4.53;3.47;;;;;;;27.17;29.33;100112.03;4936710;29;20040;-82
2021/09/04 08:59:49;;;;;;;8.07;4.30;;;;;;;27.12;28.47;100116.09;4940966;29;20099;-82
2021/09/04 09:02:16;;;;;;;2.97;2.10;;;;;;;25.96;29.98;100111.25;4934298;29;20032;-82
2021/09/04 09:04:57;;;;;;;3.67;3.03;;;;;;;25.96;32.12;100110.41;4940740;29;20043;-82
2021/09/04 09:07:39;;;;;;;3.30;2.80;;;;;;;27.41;31.88;100109.00;4941581;29;20059;-83
2021/09/04 09:10:26;;;;;;;4.30;2.97;;;;;;;26.86;29.26;100111.22;4941673;29;20067;-82
2021/09/04 09:12:54;;;;;;;3.85;3.17;;;;;;;27.00;28.67;100117.53;4930183;29;20116;-81
2021/09/04 09:15:23;;;;;;;4.63;3.35;;;;;;;25.37;30.79;100110.13;4939288;29;20495;-83
2021/09/04 09:18:16;;;;;;;4.85;3.05;;;;;;;26.61;30.48;100113.31;4948734;29;20033;-83
2021/09/04 09:20:48;;;;;;;3.85;3.25;;;;;;;25.94;30.73;100113.28;4943209;29;20502;-82
2021/09/04 09:23:19;;;;;;;6.03;3.13;;;;;;;26.39;30.75;100109.69;4932220;29;20094;-83
2021/09/04 09:25:49;;;;;;;5.43;3.35;;;;;;;27.25;29.86;100101.22;4939568;29;20111;-82
2021/09/04 09:28:18;;;;;;;4.68;3.65;;;;;;;26.21;30.85;100108.38;4941645;29;20102;-81
2021/09/04 09:30:47;;;;;;;4.35;2.80;;;;;;;26.27;30.87;100108.47;4943919;29;20040;-82
2021/09/04 09:33:19;;;;;;;7.00;2.97;;;;;;;26.72;30.50;100105.84;4939536;29;20539;-83
2021/09/04 09:36:00;;;;;;;4.35;2.80;;;;;;;27.00;32.25;100106.84;4936388;29;20075;-81
2021/09/04 09:38:32;;;;;;;12.52;3.47;;;;;;;26.63;30.67;100095.28;4941051;29;20061;-82
2021/09/04 09:41:00;;;;;;;5.53;2.83;;;;;;;25.32;32.71;100105.31;4934173;29;20471;-80
2021/09/04 09:43:29;;;;;;;6.57;3.42;;;;;;;25.79;31.99;100105.22;4926995;29;20119;-81
2021/09/04 09:46:09;;;;;;;5.35;3.25;;;;;;;26.16;31.76;100100.06;4924615;29;20479;-81
2021/09/04 09:48:38;;;;;;;5.65;3.40;;;;;;;27.14;30.10;100098.00;4927477;29;20047;-83
2021/09/04 09:51:07;;;;;;;4.60;3.13;;;;;;;26.20;31.09;100109.38;4926883;29;20039;-79
2021/09/04 09:53:34;;;;;;;4.22;3.53;;;;;;;26.06;30.67;100101.16;4920914;29;20132;-79
2021/09/04 09:56:02;;;;;;;3.60;3.17;;;;;;;25.91;30.93;100100.28;4922625;29;20040;-79
2021/09/04 09:58:29;;;;;;;4.82;3.47;;;;;;;25.71;32.02;100097.22;4931279;29;20567;-84
2021/09/04 10:00:58;;;;;;;7.68;6.75;;;;;;;26.83;30.68;100105.38;4936136;29;20039;-82
2021/09/04 10:03:28;;;;;;;4.45;4.00;;;;;;;26.05;32.83;100099.50;4934177;29;20048;-82
2021/09/04 10:05:58;;;;;;;5.85;3.65;;;;;;;24.61;34.30;100098.25;4917661;29;20509;-80
2021/09/04 10:08:25;;;;;;;3.75;3.33;;;;;;;25.25;33.80;100097.19;4935293;29;20070;-79
2021/09/04 10:10:53;;;;;;;6.95;3.58;;;;;;;25.42;33.79;100089.94;4935618;29;20039;-79
2021/09/04 10:13:20;;;;;;;4.18;3.47;;;;;;;25.08;33.54;100082.25;4935806;29;20035;-79
2021/09/04 10:15:50;;;;;;;5.82;5.22;;;;;;;25.10;33.67;100082.13;4935712;29;20442;-78
2021/09/04 10:18:22;;;;;;;5.10;3.45;;;;;;;24.27;34.54;100086.81;4931760;29;20040;-79
2021/09/04 10:21:12;;;;;;;6.82;4.10;;;;;;;24.94;34.44;100078.47;4950363;29;20044;-80
2021/09/04 10:23:47;;;;;;;4.82;3.42;;;;;;;25.37;33.33;100068.28;4932165;29;20048;-83
2021/09/04 10:26:36;;;;;;;5.00;4.20;;;;;;;24.33;34.96;100074.63;4936140;29;20036;-81
2021/09/04 10:29:04;;;;;;;5.13;3.55;;;;;;;24.96;34.04;100068.47;4935263;29;20059;-80
2021/09/04 10:31:52;;;;;;;4.43;3.85;;;;;;;24.91;34.07;100067.31;4935502;29;20048;-82
2021/09/04 10:34:32;;;;;;;7.32;4.13;;;;;;;25.43;33.37;100062.22;4933280;29;20066;-82
2021/09/04 10:37:05;;;;;;;5.53;4.35;;;;;;;24.60;34.14;100061.94;4935136;29;20471;-79
2021/09/04 10:39:48;;;;;;;4.78;3.40;;;;;;;24.68;34.90;100059.25;4934185;29;20040;-78
2021/09/04 10:42:22;;;;;;;8.98;3.53;;;;;;;25.32;33.47;100054.63;4937709;29;20043;-84
2021/09/04 10:44:53;;;;;;;7.10;4.10;;;;;;;25.38;33.65;100055.75;4946208;29;20046;-80
2021/09/04 10:47:23;;;;;;;4.53;3.67;;;;;;;24.42;34.36;100057.69;4939501;29;20043;-81
2021/09/04 10:49:56;;;;;;;5.75;3.60;;;;;;;24.76;34.08;100059.22;4942220;29;20043;-80
2021/09/04 10:52:59;;;;;;;15.07;4.05;;;;;;;25.95;33.01;100045.50;4922104;29;20083;-80
2021/09/04 10:55:33;;;;;;;5.60;4.35;;;;;;;25.55;32.82;100044.78;4938975;29;20048;-83
2021/09/04 10:58:06;;;;;;;4.60;3.35;;;;;;;25.85;32.88;100051.09;4950725;29;20130;-84
2021/09/04 11:00:39;;;;;;;5.15;3.78;;;;;;;25.17;33.00;100051.06;4937063;29;20035;-84
2021/09/04 11:03:11;;;;;;;6.80;3.20;;;;;;;25.18;33.51;100039.38;4951709;29;20036;-83
2021/09/04 11:05:40;;;;;;;4.30;3.65;;;;;;;25.64;32.63;100042.06;4935452;29;20067;-78
2021/09/04 11:08:10;;;;;;;8.85;3.97;;;;;;;26.18;32.75;100039.25;4934423;29;20141;-80
2021/09/04 11:10:41;;;;;;;3.33;3.00;;;;;;;24.86;33.33;100038.50;4928259;29;20099;-80
2021/09/04 11:13:12;;;;;;;4.90;3.50;;;;;;;25.69;32.15;100026.34;4926635;29;20692;-86
2021/09/04 11:15:45;;;;;;;4.47;3.25;;;;;;;26.02;31.91;100022.38;4920109;29;20044;-89
2021/09/04 11:18:14;;;;;;;5.82;3.63;;;;;;;26.05;31.69;100015.88;4928761;29;20105;-78
2021/09/04 11:20:47;;;;;;;4.15;3.65;;;;;;;26.53;30.69;100022.53;4919467;29;20044;-79
2021/09/04 11:23:32;;;;;;;5.35;3.63;;;;;;;26.08;31.30;100021.66;4921983;29;20096;-77
2021/09/04 11:26:02;;;;;;;7.38;3.65;;;;;;;26.69;31.96;100018.00;4924333;29;20044;-78
2021/09/04 11:28:31;;;;;;;7.63;3.17;;;;;;;26.64;30.66;100016.72;4931417;29;20132;-78
2021/09/04 11:30:57;;;;;;;7.78;3.28;;;;;;;26.58;30.57;100020.16;4933343;29;20059;-80